Time;durP1;ratioP1;P1;durP2;ratioP2;P2;SDS_P1;SDS_P2;PMS_P1;PMS_P2;Temp;Humidity;BMP_temperature;BMP_pressure;BME280_temperature;BME280_humidity;BME280_pressure;Samples;Min_cycle;Max_cycle;Signal;HPM_P1;HPM_P2
2023/05/29 00:00:47;;;;;;;6.65;4.22;;;18.20;99.00;;;;;;6095826;23;20375;-84
2023/05/29 00:03:14;;;;;;;6.13;3.47;;;18.30;99.70;;;;;;6095453;23;20838;-84
2023/05/29 00:05:41;;;;;;;4.22;3.75;;;18.30;99.60;;;;;;6094711;23;20388;-85
2023/05/29 00:08:07;;;;;;;5.05;3.80;;;18.30;99.90;;;;;;6120888;23;20697;-84
2023/05/29 00:10:37;;;;;;;5.78;4.13;;;18.30;99.90;;;;;;6120313;23;20542;-83
2023/05/29 00:13:04;;;;;;;6.15;4.22;;;18.20;99.90;;;;;;6095368;23;20605;-85
2023/05/29 00:15:33;;;;;;;5.40;4.30;;;18.20;99.90;;;;;;6095347;23;20410;-84
2023/05/29 00:18:01;;;;;;;4.73;3.80;;;18.20;99.90;;;;;;6095387;23;20402;-84
2023/05/29 00:20:28;;;;;;;4.53;3.80;;;18.20;99.90;;;;;;6119751;23;20496;-84
2023/05/29 00:22:55;;;;;;;3.50;3.20;;;18.20;99.90;;;;;;6121284;23;20387;-83
2023/05/29 00:25:22;;;;;;;4.30;3.50;;;18.20;99.90;;;;;;6094273;23;20380;-83
2023/05/29 00:27:49;;;;;;;4.43;3.33;;;18.20;99.90;;;;;;6095580;23;20371;-83
2023/05/29 00:30:16;;;;;;;4.77;3.57;;;18.30;99.60;;;;;;6095378;23;20388;-84
2023/05/29 00:32:43;;;;;;;4.27;3.40;;;18.30;99.70;;;;;;6094840;23;20387;-84
2023/05/29 00:35:10;;;;;;;4.37;3.63;;;18.30;99.50;;;;;;6093711;23;20717;-84
2023/05/29 00:37:37;;;;;;;4.00;3.50;;;18.30;99.00;;;;;;6093809;23;20387;-84
2023/05/29 00:40:05;;;;;;;3.88;3.17;;;18.30;98.50;;;;;;6121281;23;20379;-84
2023/05/29 00:42:32;;;;;;;4.95;3.80;;;18.30;97.90;;;;;;6094504;23;20376;-84
2023/05/29 00:44:59;;;;;;;4.13;3.15;;;18.30;97.50;;;;;;6095442;23;20656;-84
2023/05/29 00:47:25;;;;;;;4.35;3.75;;;18.30;97.40;;;;;;6094411;23;20387;-84
2023/05/29 00:49:55;;;;;;;4.45;3.55;;;18.30;97.30;;;;;;6095219;23;20372;-85
2023/05/29 00:52:23;;;;;;;5.28;3.85;;;18.30;97.10;;;;;;6093788;23;20379;-84
2023/05/29 00:54:51;;;;;;;3.80;3.10;;;18.30;96.60;;;;;;6095033;23;20489;-83
2023/05/29 00:57:18;;;;;;;4.63;3.17;;;18.40;96.60;;;;;;6095175;23;20381;-84
2023/05/29 00:59:47;;;;;;;6.97;3.87;;;18.30;96.90;;;;;;6094185;23;20425;-84
2023/05/29 01:15:58;;;;;;;4.40;2.97;;;18.30;96.30;;;;;;6074855;23;20385;-80
2023/05/29 01:18:50;;;;;;;7.38;3.75;;;18.30;96.90;;;;;;6065572;23;20851;-80
2023/05/29 01:21:35;;;;;;;12.20;3.38;;;18.30;97.80;;;;;;6064882;23;20791;-80
2023/05/29 01:24:41;;;;;;;4.00;3.15;;;18.30;99.40;;;;;;6066006;23;20388;-82
2023/05/29 01:27:10;;;;;;;5.28;3.75;;;18.20;99.90;;;;;;6088176;23;20383;-81
2023/05/29 01:29:43;;;;;;;5.88;3.65;;;18.30;99.90;;;;;;6091358;23;20836;-80
2023/05/29 01:32:11;;;;;;;5.60;3.33;;;18.20;99.90;;;;;;6048880;23;20872;-82
2023/05/29 01:34:41;;;;;;;3.50;2.92;;;18.20;99.90;;;;;;6037898;23;20378;-83
2023/05/29 01:37:08;;;;;;;3.97;2.70;;;18.20;99.90;;;;;;6036065;23;20442;-82
2023/05/29 01:39:35;;;;;;;3.55;2.80;;;18.20;99.90;;;;;;6037531;23;20383;-82
2023/05/29 01:42:04;;;;;;;4.43;3.13;;;18.20;99.90;;;;;;6036034;23;20394;-82
2023/05/29 01:44:31;;;;;;;6.43;3.67;;;18.20;99.90;;;;;;6037535;23;20383;-83
2023/05/29 01:46:58;;;;;;;4.07;3.30;;;18.20;99.90;;;;;;6033800;23;20593;-81
2023/05/29 01:49:27;;;;;;;3.67;2.97;;;18.10;99.90;;;;;;6061087;23;20386;-81
2023/05/29 01:51:54;;;;;;;4.32;2.72;;;18.10;99.90;;;;;;6036758;23;20383;-81
2023/05/29 01:54:22;;;;;;;4.10;3.30;;;18.10;99.90;;;;;;6061500;23;20379;-81
2023/05/29 01:56:50;;;;;;;4.93;3.47;;;18.10;99.90;;;;;;6037350;23;20742;-81
2023/05/29 01:59:17;;;;;;;4.68;3.40;;;18.10;99.90;;;;;;6037600;23;20406;-82
2023/05/29 02:01:44;;;;;;;4.97;2.97;;;18.00;99.90;;;;;;6049057;23;20385;-82
2023/05/29 02:04:11;;;;;;;5.88;4.10;;;18.00;99.90;;;;;;6064685;23;20706;-81
2023/05/29 02:06:39;;;;;;;4.93;3.60;;;17.90;99.90;;;;;;6061359;23;20387;-82
2023/05/29 02:09:06;;;;;;;4.75;3.67;;;17.90;99.90;;;;;;6065728;23;20392;-81
2023/05/29 02:11:33;;;;;;;4.60;3.70;;;17.90;99.90;;;;;;6061725;23;20394;-84
2023/05/29 02:14:02;;;;;;;6.82;4.25;;;17.80;99.90;;;;;;6065356;23;20471;-82
2023/05/29 02:16:33;;;;;;;5.47;4.18;;;17.70;99.90;;;;;;6032338;23;20445;-83
2023/05/29 02:19:01;;;;;;;5.35;3.92;;;17.70;99.90;;;;;;6031516;23;20396;-82
2023/05/29 02:21:29;;;;;;;5.95;3.70;;;17.60;99.90;;;;;;6031294;23;20385;-82
2023/05/29 02:23:55;;;;;;;5.68;3.58;;;17.60;99.90;;;;;;6031514;23;20693;-82
2023/05/29 02:26:23;;;;;;;5.18;3.00;;;17.60;99.90;;;;;;6032369;23;20389;-83
2023/05/29 02:28:49;;;;;;;4.45;3.50;;;17.60;99.90;;;;;;6032128;23;20396;-83
2023/05/29 02:31:16;;;;;;;3.47;2.90;;;17.60;99.90;;;;;;6032468;23;20391;-83
2023/05/29 02:33:43;;;;;;;4.93;3.78;;;17.70;99.90;;;;;;6032329;23;20423;-81
2023/05/29 02:36:11;;;;;;;4.55;2.95;;;17.70;99.90;;;;;;6031949;23;20765;-83
2023/05/29 02:38:38;;;;;;;5.18;3.38;;;17.70;99.90;;;;;;6031824;23;20441;-82
2023/05/29 02:41:05;;;;;;;6.45;3.42;;;17.80;99.90;;;;;;6031717;23;20756;-81
2023/05/29 02:43:32;;;;;;;5.88;3.75;;;17.80;99.90;;;;;;6032197;23;20863;-81
2023/05/29 02:45:59;;;;;;;3.90;3.35;;;17.70;99.90;;;;;;6031659;23;20384;-81
2023/05/29 02:48:26;;;;;;;6.47;4.07;;;17.70;99.90;;;;;;6032749;23;20707;-82
2023/05/29 02:50:53;;;;;;;5.40;3.97;;;17.70;99.90;;;;;;6031519;23;20938;-81
2023/05/29 02:53:20;;;;;;;5.57;3.95;;;17.70;99.90;;;;;;6032057;23;20399;-83
2023/05/29 02:55:50;;;;;;;6.05;3.72;;;17.70;99.90;;;;;;6032421;23;20389;-83
2023/05/29 02:58:18;;;;;;;6.17;3.80;;;17.70;99.90;;;;;;6031843;23;20449;-83
2023/05/29 03:00:45;;;;;;;5.07;3.40;;;17.70;99.90;;;;;;6032514;23;20392;-82
2023/05/29 03:03:12;;;;;;;4.82;3.20;;;17.70;99.90;;;;;;6031635;23;20381;-83
2023/05/29 03:05:39;;;;;;;4.27;3.70;;;17.70;99.90;;;;;;6032657;23;20719;-81
2023/05/29 03:08:06;;;;;;;5.10;3.60;;;17.70;99.90;;;;;;6031427;23;20391;-82
2023/05/29 03:10:33;;;;;;;5.88;3.95;;;17.70;99.90;;;;;;6032338;23;20389;-83
2023/05/29 03:13:00;;;;;;;5.80;4.07;;;17.60;99.90;;;;;;6031221;23;21001;-84
2023/05/29 03:15:27;;;;;;;6.80;4.80;;;17.60;99.90;;;;;;6047899;23;20379;-83
2023/05/29 03:17:54;;;;;;;5.53;4.07;;;17.50;99.90;;;;;;6060889;23;20383;-83
2023/05/29 03:20:21;;;;;;;5.30;4.13;;;17.50;99.90;;;;;;6084054;23;20394;-83
2023/05/29 03:22:47;;;;;;;5.78;4.20;;;17.40;99.90;;;;;;6061294;23;20455;-83
2023/05/29 03:25:16;;;;;;;4.38;3.97;;;17.50;99.90;;;;;;6059914;23;20437;-82
2023/05/29 03:27:43;;;;;;;3.72;2.90;;;17.40;99.90;;;;;;6061251;23;20449;-83
2023/05/29 03:30:11;;;;;;;7.10;4.18;;;17.40;99.90;;;;;;6059721;23;20857;-84
2023/05/29 03:32:38;;;;;;;5.63;4.13;;;17.40;99.90;;;;;;6062410;23;20395;-84
2023/05/29 03:35:05;;;;;;;9.57;3.90;;;17.40;99.90;;;;;;6062929;23;20386;-83
2023/05/29 03:37:32;;;;;;;4.70;3.75;;;17.30;99.90;;;;;;6064350;23;20709;-82
2023/05/29 03:39:59;;;;;;;6.63;4.22;;;17.30;99.90;;;;;;6061175;23;20382;-83
2023/05/29 03:42:25;;;;;;;5.45;4.10;;;17.40;99.90;;;;;;6063109;23;20442;-84
2023/05/29 03:44:52;;;;;;;5.75;3.60;;;17.30;99.90;;;;;;6062418;23;20383;-83
2023/05/29 03:47:20;;;;;;;4.73;3.77;;;17.30;99.90;;;;;;6061894;23;20439;-83
2023/05/29 03:49:47;;;;;;;4.77;3.73;;;17.30;99.90;;;;;;6062453;23;20458;-83
2023/05/29 03:52:15;;;;;;;4.57;4.00;;;17.30;99.90;;;;;;6061704;23;20379;-84
2023/05/29 03:54:41;;;;;;;7.07;4.78;;;17.20;99.90;;;;;;6062227;23;20857;-82
2023/05/29 03:57:08;;;;;;;5.07;3.95;;;17.20;99.90;;;;;;6061724;23;20390;-83
2023/05/29 03:59:36;;;;;;;6.35;4.93;;;17.10;99.90;;;;;;6062224;23;20475;-83
2023/05/29 04:02:03;;;;;;;5.17;4.40;;;17.10;99.90;;;;;;6061489;23;20698;-84
2023/05/29 04:04:30;;;;;;;6.63;4.23;;;17.00;99.90;;;;;;6062402;23;20752;-83
2023/05/29 04:06:57;;;;;;;6.50;4.80;;;17.00;99.90;;;;;;6062312;23;20908;-82
2023/05/29 04:09:24;;;;;;;6.40;4.55;;;17.00;99.90;;;;;;6061793;23;20387;-83
2023/05/29 04:11:51;;;;;;;5.87;4.77;;;16.90;99.90;;;;;;6062825;23;20450;-82
2023/05/29 04:14:18;;;;;;;6.47;4.85;;;16.90;99.90;;;;;;6063216;23;20446;-82
2023/05/29 04:16:46;;;;;;;6.15;4.82;;;16.90;99.90;;;;;;6067244;23;20381;-82
2023/05/29 04:19:13;;;;;;;6.85;4.60;;;16.90;99.90;;;;;;6066281;23;20747;-82
2023/05/29 04:21:40;;;;;;;5.60;4.57;;;16.90;99.90;;;;;;6066951;23;20701;-82
2023/05/29 04:24:07;;;;;;;6.00;4.37;;;16.80;99.90;;;;;;6066312;23;20711;-82
2023/05/29 04:26:33;;;;;;;7.23;4.97;;;16.80;99.90;;;;;;6067111;23;20705;-82
2023/05/29 04:29:00;;;;;;;6.05;4.82;;;16.90;99.90;;;;;;6066457;23;20456;-81
2023/05/29 04:31:27;;;;;;;5.10;4.60;;;16.90;99.90;;;;;;6067635;23;20381;-81
2023/05/29 04:33:55;;;;;;;5.60;4.63;;;16.90;99.90;;;;;;6067364;23;20406;-82
2023/05/29 04:36:28;;;;;;;4.72;4.05;;;16.90;99.90;;;;;;6066068;23;20388;-82
2023/05/29 04:38:55;;;;;;;6.82;4.95;;;16.90;99.90;;;;;;6066937;23;20716;-82
2023/05/29 04:41:23;;;;;;;5.32;4.47;;;16.90;99.90;;;;;;6066057;23;20381;-82
2023/05/29 04:43:53;;;;;;;5.18;4.32;;;16.80;99.90;;;;;;6092313;23;20385;-82
2023/05/29 04:46:20;;;;;;;5.28;4.55;;;16.80;99.90;;;;;;6065617;23;20464;-83
2023/05/29 04:48:47;;;;;;;6.20;4.75;;;16.80;99.90;;;;;;6067319;23;20444;-83
2023/05/29 04:51:14;;;;;;;6.90;4.80;;;16.80;99.90;;;;;;6065733;23;20381;-83
2023/05/29 04:53:42;;;;;;;5.47;4.97;;;16.80;99.90;;;;;;6067111;23;20461;-83
2023/05/29 04:56:09;;;;;;;6.47;4.78;;;16.80;99.90;;;;;;6065939;23;20404;-83
2023/05/29 04:58:36;;;;;;;6.80;4.90;;;16.80;99.90;;;;;;6066868;23;20472;-83
2023/05/29 05:01:04;;;;;;;5.35;4.50;;;16.90;99.90;;;;;;6065775;23;20393;-82
2023/05/29 05:03:33;;;;;;;4.82;4.32;;;16.90;99.90;;;;;;6066477;23;20723;-83
2023/05/29 05:06:05;;;;;;;5.82;4.72;;;17.00;99.90;;;;;;6067225;23;20393;-83
2023/05/29 05:08:32;;;;;;;8.27;4.55;;;17.00;99.90;;;;;;6065864;23;20388;-83
2023/05/29 05:11:00;;;;;;;6.78;5.00;;;17.00;99.90;;;;;;6066440;23;20442;-83
2023/05/29 05:13:27;;;;;;;5.90;4.60;;;17.00;99.90;;;;;;6065606;23;20457;-83
2023/05/29 05:15:54;;;;;;;6.05;4.88;;;17.10;99.90;;;;;;6066256;23;20392;-83
2023/05/29 05:18:21;;;;;;;5.80;4.82;;;17.10;99.90;;;;;;6065557;23;20464;-84
2023/05/29 05:20:48;;;;;;;5.40;4.55;;;17.10;99.90;;;;;;6066649;23;20377;-83
2023/05/29 05:23:15;;;;;;;6.63;4.97;;;17.20;99.90;;;;;;6065447;23;20381;-83
2023/05/29 05:25:42;;;;;;;7.60;4.90;;;17.20;99.90;;;;;;6066653;23;20711;-83
2023/05/29 05:28:09;;;;;;;5.90;4.80;;;17.20;99.90;;;;;;6065376;23;20715;-83
2023/05/29 05:30:36;;;;;;;7.18;5.65;;;17.20;99.90;;;;;;6066764;23;20381;-84
2023/05/29 05:33:03;;;;;;;8.95;5.40;;;17.20;99.90;;;;;;6066248;23;20378;-82
2023/05/29 05:35:30;;;;;;;5.85;5.10;;;17.20;99.90;;;;;;6065065;23;20377;-83
2023/05/29 05:37:57;;;;;;;6.37;4.90;;;17.20;99.90;;;;;;6066676;23;20373;-84
2023/05/29 05:40:27;;;;;;;5.95;4.60;;;17.30;99.90;;;;;;6065550;23;20385;-84
2023/05/29 05:42:54;;;;;;;6.75;4.75;;;17.30;99.90;;;;;;6066396;23;20693;-84
2023/05/29 05:45:21;;;;;;;6.43;4.88;;;17.30;99.90;;;;;;6065094;23;20377;-84
2023/05/29 05:47:49;;;;;;;7.35;4.90;;;17.40;99.90;;;;;;6066624;23;20382;-84
2023/05/29 05:50:16;;;;;;;6.15;4.97;;;17.40;99.90;;;;;;6065104;23;20381;-84
2023/05/29 05:52:43;;;;;;;4.60;4.10;;;17.50;99.90;;;;;;6066570;23;20385;-83
2023/05/29 05:55:10;;;;;;;5.70;4.80;;;17.50;99.90;;;;;;6066209;23;20757;-84
2023/05/29 05:57:37;;;;;;;8.30;4.68;;;17.60;99.90;;;;;;6065938;23;20388;-83
2023/05/29 06:00:11;;;;;;;6.95;4.65;;;17.60;99.90;;;;;;6065963;23;20381;-84
2023/05/29 06:02:42;;;;;;;7.20;3.90;;;17.60;99.90;;;;;;6065037;23;20380;-85
2023/05/29 06:05:09;;;;;;;7.05;4.30;;;17.70;99.90;;;;;;6065794;23;20762;-85
2023/05/29 06:07:37;;;;;;;7.05;4.55;;;17.70;99.90;;;;;;6065342;23;20390;-84
2023/05/29 06:10:04;;;;;;;6.10;4.65;;;17.70;99.90;;;;;;6065919;23;20396;-86
2023/05/29 06:12:31;;;;;;;5.18;4.30;;;17.70;99.90;;;;;;6065131;23;20798;-84
2023/05/29 06:14:58;;;;;;;6.55;4.40;;;17.80;99.90;;;;;;6066513;23;20390;-83
2023/05/29 06:17:25;;;;;;;6.63;4.35;;;17.90;99.90;;;;;;6065133;23;20385;-83
2023/05/29 06:19:52;;;;;;;6.50;4.28;;;18.00;99.90;;;;;;6066356;23;20472;-84
2023/05/29 06:22:20;;;;;;;7.72;4.60;;;18.10;99.90;;;;;;6064731;23;20666;-84
2023/05/29 06:24:47;;;;;;;7.03;4.28;;;18.20;99.90;;;;;;6091097;23;20373;-82
2023/05/29 06:27:14;;;;;;;5.90;4.20;;;18.30;98.80;;;;;;6085021;23;20780;-84
2023/05/29 06:29:41;;;;;;;4.95;3.72;;;18.40;99.10;;;;;;6088455;23;20712;-85
2023/05/29 06:32:08;;;;;;;4.72;4.10;;;18.50;98.20;;;;;;6064393;23;20752;-84
2023/05/29 06:34:35;;;;;;;7.22;4.20;;;18.60;98.60;;;;;;6065413;23;20812;-84
2023/05/29 06:37:02;;;;;;;5.35;3.95;;;18.80;98.90;;;;;;6065357;23;20394;-85
2023/05/29 06:39:29;;;;;;;5.53;4.30;;;19.00;96.90;;;;;;6089279;23;20787;-84
2023/05/29 06:41:56;;;;;;;4.82;3.85;;;19.20;96.30;;;;;;6066032;23;20377;-84
2023/05/29 06:44:23;;;;;;;4.50;3.47;;;19.30;95.10;;;;;;6064963;23;20378;-87
2023/05/29 06:46:50;;;;;;;5.78;3.80;;;19.50;95.80;;;;;;6066175;23;20381;-84
2023/05/29 06:49:17;;;;;;;6.60;3.63;;;19.60;94.90;;;;;;6066230;23;20708;-84
2023/05/29 06:51:44;;;;;;;6.45;4.20;;;19.60;95.30;;;;;;6065280;23;20381;-83
2023/05/29 06:54:11;;;;;;;5.80;4.25;;;19.60;96.40;;;;;;6066054;23;20392;-83
2023/05/29 06:56:38;;;;;;;5.03;3.70;;;19.70;96.60;;;;;;6064343;23;20381;-86
2023/05/29 06:59:05;;;;;;;6.07;4.30;;;19.70;96.40;;;;;;6065502;23;20468;-83
2023/05/29 07:01:32;;;;;;;7.20;5.60;;;19.70;98.30;;;;;;6063659;23;20381;-85
2023/05/29 07:03:59;;;;;;;5.75;5.15;;;19.60;99.70;;;;;;6066046;23;20392;-83
2023/05/29 07:06:26;;;;;;;6.05;4.55;;;19.70;99.90;;;;;;6065570;23;20445;-83
2023/05/29 07:08:53;;;;;;;6.80;5.28;;;19.70;99.90;;;;;;6067549;23;20381;-83
2023/05/29 07:11:20;;;;;;;5.38;4.78;;;19.70;99.90;;;;;;6068231;23;20384;-83
2023/05/29 07:13:47;;;;;;;5.60;4.40;;;19.70;99.60;;;;;;6065319;23;20386;-83
2023/05/29 07:16:14;;;;;;;6.53;4.82;;;19.70;99.30;;;;;;6066568;23;20381;-83
2023/05/29 07:18:50;;;;;;;6.60;4.32;;;19.70;99.90;;;;;;6091182;23;20385;-83
2023/05/29 07:21:18;;;;;;;5.32;3.92;;;19.80;98.80;;;;;;6067490;23;20378;-83
2023/05/29 07:23:45;;;;;;;4.93;4.18;;;19.70;98.10;;;;;;6090266;23;20745;-83
2023/05/29 07:26:12;;;;;;;5.20;4.60;;;19.80;97.90;;;;;;6067225;23;20377;-83
2023/05/29 07:28:39;;;;;;;6.13;5.20;;;19.80;98.70;;;;;;6065819;23;20377;-85
2023/05/29 07:31:06;;;;;;;5.20;4.70;;;19.80;98.80;;;;;;6065959;23;20382;-84
2023/05/29 07:33:33;;;;;;;6.43;5.43;;;19.80;99.90;;;;;;6090467;23;20388;-85
2023/05/29 07:36:00;;;;;;;9.60;6.03;;;19.70;99.90;;;;;;6067227;23;20910;-84
2023/05/29 07:38:26;;;;;;;6.90;6.10;;;19.60;99.90;;;;;;6067271;23;20689;-85
2023/05/29 07:40:53;;;;;;;7.82;6.05;;;19.50;99.90;;;;;;6091881;23;20444;-87
2023/05/29 07:43:21;;;;;;;6.82;5.88;;;19.50;99.90;;;;;;6067119;23;20374;-85
2023/05/29 07:45:47;;;;;;;6.75;5.80;;;19.40;99.90;;;;;;6066760;23;20404;-84
2023/05/29 07:48:14;;;;;;;5.80;5.13;;;19.50;99.90;;;;;;6067211;23;20377;-86
2023/05/29 07:50:41;;;;;;;7.70;5.05;;;19.80;98.80;;;;;;6066837;23;20382;-85
2023/05/29 07:53:08;;;;;;;5.72;4.22;;;20.00;96.70;;;;;;6066819;23;20716;-85
2023/05/29 07:55:35;;;;;;;5.32;3.53;;;20.30;96.40;;;;;;6065864;23;20424;-84
2023/05/29 07:58:02;;;;;;;5.18;3.45;;;20.50;92.80;;;;;;6066793;23;20392;-85
2023/05/29 08:00:29;;;;;;;5.43;3.40;;;20.70;90.80;;;;;;6065677;23;20385;-84
2023/05/29 08:02:57;;;;;;;4.50;2.90;;;20.90;88.30;;;;;;6091358;23;20377;-86
2023/05/29 08:05:24;;;;;;;3.75;3.35;;;21.00;86.10;;;;;;6066348;23;20385;-86
2023/05/29 08:07:51;;;;;;;4.70;3.60;;;21.00;85.20;;;;;;6066153;23;20382;-86
2023/05/29 08:10:18;;;;;;;4.68;3.38;;;21.00;83.50;;;;;;6066776;23;20448;-86
2023/05/29 08:12:45;;;;;;;4.03;3.28;;;20.90;81.90;;;;;;6065135;23;20689;-86
2023/05/29 08:15:12;;;;;;;3.97;3.50;;;20.90;83.70;;;;;;6065947;23;20401;-86
2023/05/29 08:17:39;;;;;;;4.47;3.35;;;20.90;81.60;;;;;;6090945;23;20373;-84
2023/05/29 08:20:06;;;;;;;5.53;3.78;;;20.90;82.90;;;;;;6067027;23;20393;-86
2023/05/29 08:22:33;;;;;;;4.68;3.10;;;20.90;83.30;;;;;;6064463;23;20453;-84
2023/05/29 08:25:01;;;;;;;5.03;3.40;;;20.80;82.60;;;;;;6092320;23;20377;-86
2023/05/29 08:27:28;;;;;;;4.50;3.38;;;20.80;78.20;;;;;;6067064;23;20385;-85
2023/05/29 08:29:55;;;;;;;4.10;2.92;;;20.60;79.20;;;;;;6065842;23;20855;-85
2023/05/29 08:32:22;;;;;;;3.70;3.13;;;20.50;82.20;;;;;;6065867;23;20391;-85
2023/05/29 08:34:49;;;;;;;4.65;2.92;;;20.60;83.50;;;;;;6066504;23;20401;-85
2023/05/29 08:37:17;;;;;;;3.55;2.60;;;20.70;81.50;;;;;;6066669;23;20382;-86
2023/05/29 08:39:44;;;;;;;3.90;2.67;;;20.80;75.70;;;;;;6066063;23;20374;-85
2023/05/29 08:42:15;;;;;;;4.10;2.78;;;20.80;75.50;;;;;;6066721;23;20378;-85
2023/05/29 08:44:46;;;;;;;3.95;2.95;;;20.80;75.50;;;;;;6065908;23;20379;-86
2023/05/29 08:47:20;;;;;;;5.03;3.08;;;20.80;75.30;;;;;;6066655;23;20382;-87
2023/05/29 08:49:53;;;;;;;4.55;3.65;;;20.70;80.10;;;;;;6064909;23;20385;-87
2023/05/29 08:52:25;;;;;;;5.40;3.40;;;20.70;83.30;;;;;;6065257;23;20496;-86
2023/05/29 08:54:53;;;;;;;4.53;3.53;;;20.70;83.90;;;;;;6065722;23;20473;-87
2023/05/29 08:57:21;;;;;;;6.60;4.00;;;20.70;85.10;;;;;;6064090;23;20382;-86
2023/05/29 08:59:52;;;;;;;4.70;3.63;;;20.70;85.30;;;;;;6064924;23;20388;-86
2023/05/29 09:02:19;;;;;;;5.82;3.13;;;20.70;84.00;;;;;;6065237;23;20428;-86
2023/05/29 09:04:52;;;;;;;3.95;3.47;;;20.80;82.70;;;;;;6065503;23;20427;-86
2023/05/29 09:07:19;;;;;;;5.68;3.88;;;20.80;79.60;;;;;;6066437;23;20389;-86
2023/05/29 09:09:47;;;;;;;3.87;3.40;;;20.90;80.60;;;;;;6064856;23;20385;-87
2023/05/29 09:12:15;;;;;;;4.22;3.45;;;21.00;81.20;;;;;;6065870;23;20413;-87
2023/05/29 09:14:44;;;;;;;4.32;3.20;;;21.10;81.00;;;;;;6065642;23;20390;-86
2023/05/29 09:17:12;;;;;;;4.20;3.13;;;21.10;79.70;;;;;;6066466;23;20382;-87
2023/05/29 09:19:40;;;;;;;3.75;3.42;;;21.30;79.60;;;;;;6065769;23;20373;-87
2023/05/29 09:22:15;;;;;;;3.50;2.90;;;21.40;75.30;;;;;;6066722;23;20456;-86
2023/05/29 09:24:47;;;;;;;4.38;3.05;;;21.50;72.50;;;;;;6065248;23;20389;-87
2023/05/29 09:27:15;;;;;;;5.97;2.90;;;21.80;72.80;;;;;;6065689;23;20381;-87
2023/05/29 09:29:43;;;;;;;3.58;2.90;;;22.10;70.80;;;;;;6064830;23;20389;-87
2023/05/29 09:32:12;;;;;;;3.63;2.42;;;22.50;68.30;;;;;;6065638;23;20413;-86
2023/05/29 09:34:39;;;;;;;4.03;3.20;;;22.90;64.80;;;;;;6090798;23;20394;-86
2023/05/29 09:37:08;;;;;;;3.22;2.90;;;23.10;60.90;;;;;;6066308;23;21195;-86
2023/05/29 09:39:42;;;;;;;3.10;2.78;;;23.30;60.70;;;;;;6066380;23;20456;-87
2023/05/29 09:42:12;;;;;;;3.05;2.75;;;23.50;61.40;;;;;;6064602;23;20385;-86
2023/05/29 09:44:46;;;;;;;3.15;2.78;;;23.70;58.90;;;;;;6066505;23;20384;-86
2023/05/29 09:47:19;;;;;;;3.65;2.60;;;23.90;56.90;;;;;;6065150;23;20377;-86
2023/05/29 09:49:47;;;;;;;3.30;2.67;;;23.80;55.80;;;;;;6066614;23;20381;-86
2023/05/29 09:52:15;;;;;;;2.80;2.40;;;23.80;54.70;;;;;;6063270;23;20681;-87
2023/05/29 09:54:46;;;;;;;3.85;2.95;;;23.60;55.60;;;;;;6065249;23;20720;-85
2023/05/29 09:57:16;;;;;;;3.45;2.72;;;23.40;56.40;;;;;;6065754;23;20377;-85
2023/05/29 09:59:51;;;;;;;3.20;2.88;;;23.30;55.40;;;;;;6091808;23;20377;-85
2023/05/29 10:02:19;;;;;;;4.20;2.85;;;23.30;56.60;;;;;;6065429;23;20404;-85
2023/05/29 10:04:49;;;;;;;4.03;3.05;;;23.30;58.00;;;;;;6066346;23;20409;-85
2023/05/29 10:07:32;;;;;;;2.60;2.40;;;23.20;57.30;;;;;;6065416;23;20384;-84
2023/05/29 10:10:07;;;;;;;3.72;2.58;;;23.00;58.60;;;;;;6065248;23;20396;-86
2023/05/29 10:12:39;;;;;;;3.83;2.50;;;22.90;58.80;;;;;;6061868;23;20716;-84
2023/05/29 10:15:13;;;;;;;3.90;2.83;;;22.90;59.80;;;;;;6058838;23;20390;-85
2023/05/29 10:18:09;;;;;;;3.42;2.95;;;22.80;58.90;;;;;;6066308;23;20432;-85
2023/05/29 10:20:36;;;;;;;4.18;2.80;;;22.70;58.60;;;;;;6059151;23;20826;-85
2023/05/29 10:23:04;;;;;;;2.95;2.65;;;22.70;59.00;;;;;;6066636;23;20377;-85
2023/05/29 10:25:33;;;;;;;3.05;2.75;;;22.80;60.10;;;;;;6065257;23;20396;-85
2023/05/29 10:28:00;;;;;;;3.53;2.72;;;22.80;59.50;;;;;;6066520;23;20453;-85
2023/05/29 10:30:36;;;;;;;3.28;2.50;;;22.80;60.00;;;;;;6065339;23;20436;-85
2023/05/29 10:33:38;;;;;;;3.55;2.80;;;22.90;60.00;;;;;;6066245;23;20436;-85
2023/05/29 10:36:24;;;;;;;3.60;3.00;;;23.00;59.20;;;;;;6065526;23;20388;-85
2023/05/29 10:38:51;;;;;;;3.88;3.35;;;22.90;58.60;;;;;;6065320;23;20389;-86
2023/05/29 10:41:27;;;;;;;5.55;3.22;;;22.80;59.60;;;;;;6067892;23;20449;-85
2023/05/29 10:43:58;;;;;;;4.07;3.67;;;22.70;61.60;;;;;;6067236;23;20391;-85
2023/05/29 10:46:48;;;;;;;5.17;4.03;;;22.60;62.30;;;;;;6068306;23;20412;-85
2023/05/29 10:49:19;;;;;;;5.50;4.70;;;22.50;63.60;;;;;;6067691;23;20452;-84
2023/05/29 10:51:48;;;;;;;4.53;4.10;;;22.20;65.00;;;;;;6068161;23;20381;-83
2023/05/29 10:54:16;;;;;;;4.45;4.05;;;22.10;67.10;;;;;;6092622;23;20373;-84
2023/05/29 10:56:51;;;;;;;4.25;3.88;;;22.10;69.20;;;;;;6093133;23;20796;-83
2023/05/29 10:59:18;;;;;;;3.75;3.30;;;22.20;69.30;;;;;;6092413;23;20381;-83
2023/05/29 11:01:45;;;;;;;2.87;2.57;;;22.30;67.00;;;;;;6068102;23;20386;-83
2023/05/29 11:04:15;;;;;;;2.97;2.50;;;22.30;61.40;;;;;;6067266;23;20414;-83
2023/05/29 11:06:42;;;;;;;2.28;1.65;;;22.30;62.60;;;;;;6067745;23;20685;-84
2023/05/29 11:09:34;;;;;;;1.98;1.42;;;22.40;60.00;;;;;;6066955;23;20384;-85
2023/05/29 11:12:25;;;;;;;1.60;1.08;;;22.50;58.50;;;;;;6066935;23;20701;-85
2023/05/29 11:15:13;;;;;;;2.40;1.40;;;22.60;58.80;;;;;;6067725;23;20389;-85
2023/05/29 11:17:40;;;;;;;1.80;1.48;;;22.60;56.20;;;;;;6067565;23;20383;-85
2023/05/29 11:20:13;;;;;;;2.20;1.90;;;22.70;57.90;;;;;;6067409;23;20428;-86
2023/05/29 11:23:00;;;;;;;2.00;1.70;;;22.70;57.70;;;;;;6066845;23;20377;-85
2023/05/29 11:25:28;;;;;;;2.17;1.88;;;22.70;56.90;;;;;;6066853;23;20667;-84
2023/05/29 11:27:55;;;;;;;3.15;2.08;;;22.70;58.30;;;;;;6067966;23;20385;-85
2023/05/29 11:30:22;;;;;;;2.83;1.42;;;23.00;59.80;;;;;;6066667;23;20767;-85
2023/05/29 11:32:52;;;;;;;2.30;1.20;;;23.20;56.10;;;;;;6067936;23;20385;-85
2023/05/29 11:35:22;;;;;;;1.92;1.23;;;23.30;54.10;;;;;;6067101;23;20395;-84
2023/05/29 11:37:50;;;;;;;1.45;1.27;;;23.30;53.80;;;;;;6067705;23;20739;-85
2023/05/29 11:40:18;;;;;;;1.60;1.20;;;23.50;53.80;;;;;;6066914;23;20409;-81
2023/05/29 11:42:48;;;;;;;1.80;1.17;;;23.50;53.20;;;;;;6067845;23;20396;-84
2023/05/29 11:45:20;;;;;;;1.40;1.00;;;23.70;53.00;;;;;;6067730;23;20824;-83
2023/05/29 11:47:57;;;;;;;1.90;1.15;;;24.00;51.50;;;;;;6068217;23;20378;-84
2023/05/29 11:50:27;;;;;;;1.70;1.30;;;24.30;52.50;;;;;;6066905;23;20420;-85
2023/05/29 11:52:56;;;;;;;1.50;1.40;;;24.60;50.50;;;;;;6066434;23;20397;-83
2023/05/29 11:55:24;;;;;;;3.00;1.58;;;24.60;52.30;;;;;;6067448;23;20393;-82
2023/05/29 11:58:14;;;;;;;2.97;2.10;;;24.80;53.80;;;;;;6066677;23;20378;-84
2023/05/29 12:00:42;;;;;;;2.45;1.60;;;24.90;52.70;;;;;;6066245;23;20386;-84
2023/05/29 12:03:11;;;;;;;1.88;1.67;;;25.10;51.00;;;;;;6067501;23;20465;-83
2023/05/29 12:05:46;;;;;;;2.40;2.00;;;25.30;51.80;;;;;;6066909;23;20385;-82
2023/05/29 12:08:13;;;;;;;2.75;1.40;;;25.60;50.90;;;;;;6066999;23;20387;-84
2023/05/29 12:10:51;;;;;;;2.38;1.80;;;25.80;49.30;;;;;;6066536;23;20389;-83
2023/05/29 12:13:23;;;;;;;1.85;1.75;;;26.10;49.80;;;;;;6067738;23;20393;-84
2023/05/29 12:16:01;;;;;;;1.98;1.77;;;26.20;49.80;;;;;;6066152;23;21342;-84
2023/05/29 12:18:28;;;;;;;2.70;1.80;;;26.40;51.40;;;;;;6067195;23;20381;-84
2023/05/29 12:21:00;;;;;;;2.58;1.50;;;26.50;48.80;;;;;;6091276;23;20392;-86
2023/05/29 12:23:29;;;;;;;1.83;1.50;;;26.50;48.60;;;;;;6066925;23;20382;-83
2023/05/29 12:25:57;;;;;;;2.20;1.35;;;26.50;49.60;;;;;;6091480;23;20712;-83
2023/05/29 12:28:25;;;;;;;1.77;1.30;;;26.40;47.30;;;;;;6067074;23;20382;-84
2023/05/29 12:30:59;;;;;;;2.60;1.33;;;26.50;47.70;;;;;;6066025;23;20387;-81
2023/05/29 12:33:30;;;;;;;1.40;1.30;;;26.60;46.90;;;;;;6066562;23;20397;-82
2023/05/29 12:36:10;;;;;;;1.33;1.17;;;26.70;45.20;;;;;;6091548;23;20393;-85
2023/05/29 12:38:50;;;;;;;1.60;1.27;;;26.70;44.60;;;;;;6066164;23;20385;-83
2023/05/29 12:41:33;;;;;;;1.65;1.30;;;26.70;45.40;;;;;;6066776;23;20866;-84
2023/05/29 12:44:02;;;;;;;1.50;1.38;;;26.80;45.20;;;;;;6066348;23;20445;-83
2023/05/29 12:46:38;;;;;;;1.25;0.95;;;26.90;44.90;;;;;;6067056;23;20389;-84
2023/05/29 12:49:21;;;;;;;2.25;1.50;;;26.90;42.30;;;;;;6066533;23;20416;-84
2023/05/29 12:51:48;;;;;;;1.80;1.20;;;26.90;42.10;;;;;;6065474;23;20392;-83
2023/05/29 12:54:16;;;;;;;1.90;1.10;;;26.90;42.70;;;;;;6066783;23;20392;-83
2023/05/29 12:56:44;;;;;;;1.30;1.10;;;26.90;42.00;;;;;;6065591;23;20389;-82
2023/05/29 12:59:12;;;;;;;2.40;1.50;;;26.90;43.40;;;;;;6091915;23;20373;-84
2023/05/29 13:01:39;;;;;;;1.60;1.23;;;26.80;42.80;;;;;;6066428;23;20388;-82
2023/05/29 13:04:06;;;;;;;1.30;1.10;;;26.80;42.10;;;;;;6066257;23;20460;-83
2023/05/29 13:06:43;;;;;;;1.60;1.30;;;26.70;44.00;;;;;;6067050;23;20449;-83
2023/05/29 13:09:10;;;;;;;1.45;1.35;;;26.90;43.20;;;;;;6066424;23;20441;-84
2023/05/29 13:11:37;;;;;;;2.80;1.58;;;26.90;44.00;;;;;;6066852;23;20381;-83